Maputo, Mozambique
Current Conditions -  °F | °C
As of 2:00 AM on Wednesday 26 Nov 2014 (Local Time) from FAKN Reporting Station
NA  
Wind Chill: 61°   Ceiling: NA
Heat Index: 61°   Visibility: NA
Dew Point: 59°   Wind: 5mph
Humidity: 94%   Direction: 50°NE
Pressure: 30.18"   Gusts: NA
Location:  25.95°S, 32.57°E
Report Text: FAKN 260000Z AUTO 05004KT //// // ////// 16/15 Q1022
Loading
Personal Weather Stations






























Interactive Weather Map New forecast layout! Learn more

10-Day Weather Forecast

Advertisements
Track Severe Weather on mobile